Time;durP1;ratioP1;P1;durP2;ratioP2;P2;SDS_P1;SDS_P2;PMS_P1;PMS_P2;Temp;Humidity;BMP_temperature;BMP_pressure;BME280_temperature;BME280_humidity;BME280_pressure;Samples;Min_cycle;Max_cycle;Signal;HPM_P1;HPM_P2
2023/12/21 00:01:57;;;;;;;9.32;4.70;;;9.50;99.90;;;;;;5073893;28;20392;-76
2023/12/21 00:04:23;;;;;;;12.00;5.20;;;9.50;99.20;;;;;;5074010;28;20465;-76
2023/12/21 00:06:48;;;;;;;11.23;5.03;;;9.50;99.90;;;;;;5074438;28;20379;-76
2023/12/21 00:09:14;;;;;;;7.93;4.80;;;9.50;99.90;;;;;;5077028;28;20739;-76
2023/12/21 00:11:39;;;;;;;9.30;5.43;;;9.50;99.90;;;;;;5075481;28;20407;-76
2023/12/21 00:14:05;;;;;;;7.20;5.13;;;9.50;99.90;;;;;;5075003;28;20379;-76
2023/12/21 00:16:30;;;;;;;11.43;5.22;;;9.60;99.90;;;;;;5075300;28;20418;-75
2023/12/21 00:18:56;;;;;;;6.57;5.20;;;9.60;99.90;;;;;;5075101;28;20383;-76
2023/12/21 00:21:22;;;;;;;10.55;5.57;;;9.50;99.90;;;;;;5074276;28;20441;-74
2023/12/21 00:23:47;;;;;;;10.23;5.90;;;9.50;99.90;;;;;;5072899;28;20746;-76
2023/12/21 00:26:13;;;;;;;6.57;5.43;;;9.50;99.90;;;;;;5072737;28;20803;-74
2023/12/21 00:28:38;;;;;;;8.17;5.60;;;9.50;99.90;;;;;;5072852;28;20387;-75
2023/12/21 00:31:04;;;;;;;7.53;6.00;;;9.50;99.90;;;;;;5072676;28;20810;-76
2023/12/21 00:33:29;;;;;;;9.53;6.20;;;9.40;99.90;;;;;;5072897;28;20388;-75
2023/12/21 00:35:55;;;;;;;13.60;6.13;;;9.50;99.90;;;;;;5072436;28;20738;-74
2023/12/21 00:38:20;;;;;;;8.40;6.10;;;9.50;99.90;;;;;;5073289;28;20854;-74
2023/12/21 00:40:46;;;;;;;8.65;6.20;;;9.50;99.90;;;;;;5072388;28;20862;-75
2023/12/21 00:43:11;;;;;;;9.02;6.50;;;9.50;99.90;;;;;;5073541;28;20390;-75
2023/12/21 00:45:37;;;;;;;10.48;7.00;;;9.50;99.90;;;;;;5072535;28;20384;-74
2023/12/21 00:48:03;;;;;;;10.63;6.63;;;9.60;99.90;;;;;;5072309;28;20386;-76
2023/12/21 00:50:28;;;;;;;10.27;7.00;;;9.60;99.90;;;;;;5072402;28;20549;-76
2023/12/21 00:52:54;;;;;;;11.55;7.10;;;9.60;99.90;;;;;;5072070;28;20490;-76
2023/12/21 00:55:19;;;;;;;10.27;6.90;;;9.60;99.90;;;;;;5072101;28;20441;-76
2023/12/21 00:57:45;;;;;;;9.93;7.00;;;9.50;99.90;;;;;;5072156;28;20402;-75
2023/12/21 01:00:11;;;;;;;8.35;7.10;;;9.50;99.90;;;;;;5072077;28;20821;-74
2023/12/21 01:02:38;;;;;;;9.93;6.65;;;9.60;99.90;;;;;;5071879;28;20384;-75
2023/12/21 01:05:04;;;;;;;10.27;7.30;;;9.60;99.90;;;;;;5072051;28;20384;-75
2023/12/21 01:07:29;;;;;;;7.78;6.60;;;9.60;99.90;;;;;;5072019;28;20383;-75
2023/12/21 01:09:55;;;;;;;9.67;6.80;;;9.60;99.90;;;;;;5072000;28;20449;-76
2023/12/21 01:12:20;;;;;;;9.30;7.07;;;9.60;99.90;;;;;;5071819;28;20403;-76
2023/12/21 01:14:46;;;;;;;9.70;6.70;;;9.50;99.90;;;;;;5071878;28;20800;-75
2023/12/21 01:17:11;;;;;;;14.90;7.05;;;9.60;99.90;;;;;;5071839;28;20376;-74
2023/12/21 01:19:37;;;;;;;10.85;6.75;;;9.50;99.90;;;;;;5071834;28;20376;-76
2023/12/21 01:22:03;;;;;;;11.43;7.03;;;9.60;99.90;;;;;;5071705;28;20878;-76
2023/12/21 01:24:29;;;;;;;9.07;7.03;;;9.60;99.90;;;;;;5072254;28;20415;-75
2023/12/21 01:26:54;;;;;;;9.90;7.20;;;9.70;99.90;;;;;;5070631;28;20390;-77
2023/12/21 01:29:20;;;;;;;10.27;7.03;;;9.70;99.90;;;;;;5071760;28;20398;-75
2023/12/21 01:31:46;;;;;;;11.98;7.10;;;9.70;99.90;;;;;;5071336;28;20469;-74
2023/12/21 01:34:12;;;;;;;8.25;7.25;;;9.70;99.90;;;;;;5071447;28;20808;-75
2023/12/21 01:36:41;;;;;;;8.70;7.70;;;9.70;99.90;;;;;;5071497;28;20383;-75
2023/12/21 01:39:08;;;;;;;13.90;7.80;;;9.70;99.90;;;;;;5071454;28;20901;-76
2023/12/21 01:41:34;;;;;;;12.35;7.28;;;9.70;99.90;;;;;;5071735;28;20898;-75
2023/12/21 01:44:00;;;;;;;12.20;6.97;;;9.70;99.90;;;;;;5071482;28;20475;-77
2023/12/21 01:46:25;;;;;;;14.15;7.25;;;9.80;99.90;;;;;;5071379;28;20462;-76
2023/12/21 01:48:52;;;;;;;10.27;7.57;;;9.80;99.90;;;;;;5070337;28;20448;-75
2023/12/21 01:51:19;;;;;;;18.73;7.90;;;9.80;99.90;;;;;;5071642;28;20404;-75
2023/12/21 01:53:45;;;;;;;9.60;7.30;;;9.80;99.90;;;;;;5071392;28;20537;-76
2023/12/21 01:56:11;;;;;;;12.75;7.00;;;9.80;99.90;;;;;;5071725;28;20414;-76
2023/12/21 01:58:37;;;;;;;9.10;6.97;;;9.70;99.90;;;;;;5071401;28;20376;-75
2023/12/21 02:01:04;;;;;;;10.32;6.75;;;9.70;99.90;;;;;;5070470;28;20379;-74
2023/12/21 02:03:30;;;;;;;11.40;6.70;;;9.80;99.90;;;;;;5071099;28;20382;-75
2023/12/21 02:05:56;;;;;;;16.58;7.68;;;9.90;99.30;;;;;;5070917;28;20860;-74
2023/12/21 02:08:21;;;;;;;10.10;6.45;;;9.90;99.90;;;;;;5070937;28;20383;-75
2023/12/21 02:10:47;;;;;;;11.73;6.60;;;9.90;99.80;;;;;;5070689;28;20406;-75
2023/12/21 02:13:14;;;;;;;8.80;6.40;;;9.80;99.90;;;;;;5070770;28;20505;-76
2023/12/21 02:15:40;;;;;;;8.07;6.35;;;9.90;99.40;;;;;;5069480;28;20747;-76
2023/12/21 02:18:07;;;;;;;8.90;6.40;;;9.80;99.90;;;;;;5070698;28;20434;-75
2023/12/21 02:20:33;;;;;;;10.00;5.65;;;9.80;99.90;;;;;;5071138;28;20383;-75
2023/12/21 02:23:03;;;;;;;10.77;6.20;;;9.80;99.90;;;;;;5070544;28;20467;-75
2023/12/21 02:25:30;;;;;;;11.05;6.20;;;9.80;99.90;;;;;;5070731;28;20392;-75
2023/12/21 02:27:56;;;;;;;9.15;5.20;;;9.80;99.90;;;;;;5070761;28;20870;-76
2023/12/21 02:30:22;;;;;;;9.00;5.90;;;9.90;99.90;;;;;;5070478;28;20388;-75
2023/12/21 02:32:47;;;;;;;8.75;5.93;;;9.80;99.90;;;;;;5084239;22;20419;-72
2023/12/21 02:35:15;;;;;;;8.60;5.90;;;9.80;99.90;;;;;;5070418;28;20400;-72
2023/12/21 02:37:40;;;;;;;7.15;6.45;;;9.80;99.90;;;;;;5070951;28;20459;-72
2023/12/21 02:40:06;;;;;;;7.68;5.97;;;9.80;99.90;;;;;;5070579;28;20858;-72
2023/12/21 02:42:32;;;;;;;6.97;5.90;;;9.70;99.90;;;;;;5069035;28;20392;-72
2023/12/21 02:44:57;;;;;;;8.00;5.85;;;9.80;99.90;;;;;;5070280;28;20862;-72
2023/12/21 02:47:23;;;;;;;7.37;6.00;;;9.80;99.90;;;;;;5069177;28;20406;-72
2023/12/21 02:49:48;;;;;;;8.73;6.50;;;9.80;99.90;;;;;;5070553;28;20376;-72
2023/12/21 02:52:14;;;;;;;7.63;6.00;;;9.80;99.90;;;;;;5070728;28;20820;-72
2023/12/21 02:54:39;;;;;;;8.47;6.67;;;9.80;99.90;;;;;;5070472;28;20383;-71
2023/12/21 02:57:05;;;;;;;7.70;6.40;;;9.80;99.90;;;;;;5069225;28;20386;-71
2023/12/21 02:59:30;;;;;;;14.00;6.80;;;9.80;99.90;;;;;;5070145;28;20682;-72
2023/12/21 03:01:56;;;;;;;11.40;6.85;;;9.80;99.90;;;;;;5070234;28;20383;-71
2023/12/21 03:04:21;;;;;;;8.73;6.07;;;9.80;99.90;;;;;;5070001;28;20821;-71
2023/12/21 03:06:47;;;;;;;11.07;6.50;;;9.80;99.90;;;;;;5069066;28;20916;-71
2023/12/21 03:09:12;;;;;;;11.33;6.90;;;9.80;99.90;;;;;;5070244;28;20388;-71
2023/12/21 03:11:38;;;;;;;9.87;7.00;;;9.80;99.90;;;;;;5072378;28;20418;-71
2023/12/21 03:14:03;;;;;;;9.85;6.53;;;9.80;99.90;;;;;;5074336;28;20478;-71
2023/12/21 03:16:29;;;;;;;9.75;6.03;;;9.70;99.90;;;;;;5074830;28;20380;-71
2023/12/21 03:18:55;;;;;;;12.52;6.20;;;9.80;99.90;;;;;;5073021;28;20392;-71
2023/12/21 03:21:20;;;;;;;10.27;6.07;;;9.80;99.90;;;;;;5073996;28;20451;-71
2023/12/21 03:23:46;;;;;;;9.40;6.23;;;9.80;99.90;;;;;;5074138;28;20372;-71
2023/12/21 03:26:11;;;;;;;9.27;6.43;;;9.80;99.90;;;;;;5073500;28;20379;-72
2023/12/21 03:28:38;;;;;;;10.97;6.23;;;9.70;99.90;;;;;;5073931;28;20378;-72
2023/12/21 03:31:07;;;;;;;12.05;6.03;;;9.70;99.90;;;;;;5074170;28;20467;-72
2023/12/21 03:33:32;;;;;;;10.70;6.18;;;9.70;99.90;;;;;;5073858;28;20395;-72
2023/12/21 03:35:58;;;;;;;8.90;6.20;;;9.70;99.90;;;;;;5072760;28;20758;-71
2023/12/21 03:38:23;;;;;;;14.70;5.97;;;9.80;99.90;;;;;;5074030;28;20409;-72
2023/12/21 03:40:49;;;;;;;10.57;6.68;;;9.80;99.90;;;;;;5072402;28;20886;-71
2023/12/21 03:43:14;;;;;;;9.07;6.10;;;9.80;99.90;;;;;;5077534;28;20387;-71
2023/12/21 03:45:40;;;;;;;11.32;5.90;;;9.80;99.90;;;;;;5081620;28;20470;-71
2023/12/21 03:48:09;;;;;;;10.82;6.25;;;9.80;99.90;;;;;;5090057;28;20387;-71
2023/12/21 03:50:35;;;;;;;9.30;6.03;;;9.80;99.90;;;;;;5091874;28;20411;-71
2023/12/21 03:53:01;;;;;;;13.38;6.50;;;9.80;99.90;;;;;;5090798;28;20395;-72
2023/12/21 03:55:27;;;;;;;12.90;6.40;;;9.70;99.90;;;;;;5081548;28;20433;-72
2023/12/21 03:57:52;;;;;;;9.57;5.95;;;9.70;99.90;;;;;;5074552;28;20852;-72
2023/12/21 04:00:18;;;;;;;13.25;6.80;;;9.80;99.90;;;;;;5074028;28;20379;-73
2023/12/21 04:02:45;;;;;;;11.55;6.45;;;9.80;99.90;;;;;;5073869;28;20409;-72
2023/12/21 04:05:11;;;;;;;9.90;5.80;;;9.80;99.90;;;;;;5073851;28;20392;-72
2023/12/21 04:07:36;;;;;;;8.17;5.70;;;9.80;99.90;;;;;;5074485;28;20380;-73
2023/12/21 04:10:02;;;;;;;7.90;5.20;;;9.80;99.90;;;;;;5084544;28;20384;-71
2023/12/21 04:12:27;;;;;;;10.13;5.40;;;9.80;99.90;;;;;;5092546;28;20398;-70
2023/12/21 04:14:53;;;;;;;9.70;5.70;;;9.80;99.90;;;;;;5091685;28;20446;-71
2023/12/21 04:17:19;;;;;;;10.40;5.40;;;9.80;99.90;;;;;;5092015;28;20435;-70
2023/12/21 04:19:44;;;;;;;7.07;5.07;;;9.80;99.90;;;;;;5089975;28;20420;-71
2023/12/21 04:22:10;;;;;;;10.45;5.40;;;9.80;99.90;;;;;;5071696;28;20396;-71
2023/12/21 04:24:36;;;;;;;7.63;5.35;;;9.90;99.90;;;;;;5072857;28;20407;-71
2023/12/21 04:27:01;;;;;;;9.82;5.90;;;9.80;99.90;;;;;;5073135;28;20396;-72
2023/12/21 04:29:27;;;;;;;8.93;5.00;;;9.80;99.90;;;;;;5072752;28;20388;-71
2023/12/21 04:31:52;;;;;;;8.52;5.30;;;9.80;99.90;;;;;;5072725;28;20412;-72
2023/12/21 04:34:18;;;;;;;8.50;5.13;;;9.90;99.90;;;;;;5072969;28;20916;-72
2023/12/21 04:36:43;;;;;;;9.77;5.50;;;9.80;99.90;;;;;;5072683;28;20382;-71
2023/12/21 04:39:09;;;;;;;7.93;5.20;;;9.90;99.90;;;;;;5072747;28;20391;-71
2023/12/21 04:41:34;;;;;;;9.40;5.03;;;9.90;99.90;;;;;;5067997;28;20395;-72
2023/12/21 04:44:00;;;;;;;9.40;5.50;;;9.90;99.90;;;;;;5069661;28;20480;-72
2023/12/21 04:46:26;;;;;;;10.70;5.18;;;9.80;99.90;;;;;;5058935;28;20389;-74
2023/12/21 04:48:51;;;;;;;8.70;5.00;;;9.90;99.90;;;;;;5056727;28;20885;-72
2023/12/21 04:51:17;;;;;;;9.05;4.80;;;9.90;99.90;;;;;;5059946;28;20427;-72
2023/12/21 04:53:43;;;;;;;6.82;4.28;;;9.80;99.90;;;;;;5052311;28;20459;-72
2023/12/21 04:56:09;;;;;;;7.80;5.07;;;9.80;99.90;;;;;;5052203;28;20382;-72
2023/12/21 04:58:35;;;;;;;7.90;4.50;;;9.80;99.90;;;;;;5051585;28;20393;-73
2023/12/21 05:01:01;;;;;;;7.35;4.68;;;9.80;99.90;;;;;;5052867;28;20377;-72
2023/12/21 05:03:26;;;;;;;7.60;4.35;;;9.80;99.90;;;;;;5066489;28;20959;-72
2023/12/21 05:05:52;;;;;;;9.63;4.35;;;9.80;99.90;;;;;;5072074;28;20852;-72
2023/12/21 05:08:18;;;;;;;6.17;3.90;;;9.80;99.90;;;;;;5072422;28;20398;-73
2023/12/21 05:10:44;;;;;;;7.57;4.50;;;9.80;99.90;;;;;;5071015;28;20414;-73
2023/12/21 05:13:09;;;;;;;7.20;4.20;;;9.80;99.90;;;;;;5069881;28;20404;-71
2023/12/21 05:15:35;;;;;;;9.73;4.57;;;9.90;99.90;;;;;;5071809;28;20387;-73
2023/12/21 05:18:00;;;;;;;9.13;4.07;;;9.80;99.90;;;;;;5072032;28;20454;-72
2023/12/21 05:20:26;;;;;;;6.00;3.83;;;9.80;99.90;;;;;;5071322;28;20409;-73
2023/12/21 05:22:51;;;;;;;8.60;4.20;;;9.80;99.90;;;;;;5071239;28;20437;-73
2023/12/21 05:25:17;;;;;;;9.07;3.90;;;9.80;99.90;;;;;;5070959;28;20986;-73
2023/12/21 05:27:43;;;;;;;9.30;4.20;;;9.80;99.90;;;;;;5070802;28;20380;-73
2023/12/21 05:30:09;;;;;;;9.60;4.30;;;9.90;99.90;;;;;;5072029;28;20392;-73
2023/12/21 05:32:35;;;;;;;5.82;4.40;;;9.90;99.90;;;;;;5072537;28;20419;-73
2023/12/21 05:35:00;;;;;;;11.30;4.87;;;9.90;99.90;;;;;;5074379;28;20388;-73
2023/12/21 05:37:29;;;;;;;8.60;4.57;;;9.90;99.90;;;;;;5076760;28;20398;-73
2023/12/21 05:39:55;;;;;;;8.00;4.85;;;9.90;99.90;;;;;;5079126;28;20384;-71
2023/12/21 05:42:20;;;;;;;8.50;4.50;;;9.90;99.90;;;;;;5077115;28;20808;-72
2023/12/21 05:44:46;;;;;;;11.43;4.50;;;9.90;99.90;;;;;;5078171;28;20394;-72
2023/12/21 05:47:11;;;;;;;8.27;4.50;;;9.90;99.90;;;;;;5078394;28;20388;-72
2023/12/21 05:49:37;;;;;;;10.90;5.00;;;9.90;99.90;;;;;;5080500;28;20896;-72
2023/12/21 05:52:03;;;;;;;11.02;5.20;;;10.00;99.90;;;;;;5076489;28;20395;-72
2023/12/21 05:54:30;;;;;;;10.27;5.40;;;10.00;99.90;;;;;;5074288;28;20719;-73
2023/12/21 05:56:56;;;;;;;11.43;6.07;;;9.90;99.90;;;;;;5071216;28;20466;-72
2023/12/21 05:59:21;;;;;;;12.02;5.75;;;9.90;99.90;;;;;;5071477;28;20429;-72
2023/12/21 06:01:47;;;;;;;13.20;5.90;;;9.90;99.90;;;;;;5071212;28;20399;-73
2023/12/21 06:04:14;;;;;;;10.38;5.78;;;9.90;99.90;;;;;;5070797;28;20446;-72
2023/12/21 06:06:40;;;;;;;11.80;6.10;;;10.00;99.90;;;;;;5069512;28;20371;-73
2023/12/21 06:09:05;;;;;;;13.20;5.80;;;9.90;99.90;;;;;;5071280;28;20387;-73
2023/12/21 06:11:31;;;;;;;18.23;6.70;;;10.00;99.90;;;;;;5070883;28;20406;-73
2023/12/21 06:13:56;;;;;;;14.90;6.70;;;9.90;99.90;;;;;;5070799;28;20901;-73
2023/12/21 06:16:22;;;;;;;17.05;7.18;;;10.00;99.90;;;;;;5070909;28;20379;-73
2023/12/21 06:18:49;;;;;;;14.43;6.25;;;10.00;99.90;;;;;;5070912;28;20380;-72
2023/12/21 06:21:14;;;;;;;16.65;6.40;;;10.00;99.90;;;;;;5070856;28;20376;-74
2023/12/21 06:23:40;;;;;;;13.63;6.70;;;10.00;99.90;;;;;;5071046;28;20397;-72
2023/12/21 06:26:05;;;;;;;18.10;6.50;;;10.00;99.90;;;;;;5070380;28;20391;-74
2023/12/21 06:28:31;;;;;;;13.20;6.00;;;10.10;99.90;;;;;;5070692;28;20375;-73
2023/12/21 06:30:56;;;;;;;15.77;5.83;;;10.10;99.90;;;;;;5071201;28;20380;-73
2023/12/21 06:33:22;;;;;;;19.63;6.77;;;10.10;99.90;;;;;;5070589;28;20408;-73
2023/12/21 06:35:48;;;;;;;14.23;6.20;;;10.00;99.90;;;;;;5070600;28;20383;-72
2023/12/21 06:38:13;;;;;;;20.30;6.50;;;10.00;99.90;;;;;;5069335;28;20918;-72
2023/12/21 06:40:39;;;;;;;16.30;6.10;;;10.00;99.90;;;;;;5070812;28;20893;-72
2023/12/21 06:43:05;;;;;;;15.63;6.40;;;10.10;99.90;;;;;;5070680;28;20387;-73
2023/12/21 06:45:30;;;;;;;15.50;5.90;;;10.10;99.90;;;;;;5070466;28;20380;-72
2023/12/21 06:48:00;;;;;;;17.73;6.30;;;10.10;99.90;;;;;;5070559;28;20727;-73
2023/12/21 06:50:25;;;;;;;13.30;5.80;;;10.10;99.90;;;;;;5070500;28;20414;-72
2023/12/21 06:52:51;;;;;;;14.70;5.80;;;10.10;99.90;;;;;;5070872;28;20503;-73
2023/12/21 06:55:17;;;;;;;17.13;6.45;;;10.10;99.90;;;;;;5068795;28;20396;-73
2023/12/21 06:57:43;;;;;;;13.75;5.85;;;10.10;99.90;;;;;;5070358;28;20375;-73
2023/12/21 07:00:09;;;;;;;16.90;6.10;;;10.10;99.90;;;;;;5070690;28;20893;-73
2023/12/21 07:02:35;;;;;;;17.27;6.28;;;10.10;99.90;;;;;;5070270;28;20818;-72
2023/12/21 07:05:01;;;;;;;18.85;6.50;;;10.10;99.90;;;;;;5070324;28;20419;-73
2023/12/21 07:07:26;;;;;;;17.60;6.53;;;10.20;99.90;;;;;;5070088;28;20448;-73
2023/12/21 07:09:52;;;;;;;21.00;6.50;;;10.10;99.90;;;;;;5070230;28;20422;-72
2023/12/21 07:12:19;;;;;;;20.90;6.70;;;10.10;99.90;;;;;;5070204;28;20408;-72
2023/12/21 07:14:46;;;;;;;18.35;6.80;;;10.10;99.90;;;;;;5070029;28;20386;-72
2023/12/21 07:17:12;;;;;;;15.13;6.30;;;10.20;99.90;;;;;;5070212;28;20380;-72
2023/12/21 07:19:38;;;;;;;13.15;6.40;;;10.10;99.90;;;;;;5070439;28;20398;-73
2023/12/21 07:22:04;;;;;;;12.73;6.10;;;10.20;99.90;;;;;;5069484;28;20420;-73
2023/12/21 07:24:30;;;;;;;19.95;6.30;;;10.20;99.90;;;;;;5069794;28;20496;-72
2023/12/21 07:26:56;;;;;;;18.50;6.73;;;10.20;99.90;;;;;;5068854;28;20469;-72
2023/12/21 07:29:22;;;;;;;18.87;6.80;;;10.20;99.90;;;;;;5069895;28;20893;-73
2023/12/21 07:31:47;;;;;;;20.03;6.70;;;10.20;99.90;;;;;;5069607;28;20869;-73
2023/12/21 07:34:13;;;;;;;16.20;6.50;;;10.20;99.90;;;;;;5070106;28;20837;-73
2023/12/21 07:36:39;;;;;;;20.53;7.00;;;10.30;99.90;;;;;;5070309;28;20379;-73
2023/12/21 07:39:04;;;;;;;17.43;6.90;;;10.20;99.90;;;;;;5070264;28;20379;-73
2023/12/21 07:41:30;;;;;;;21.13;7.10;;;10.20;99.90;;;;;;5070134;28;20384;-73
2023/12/21 07:43:57;;;;;;;20.80;7.28;;;10.20;99.90;;;;;;5070228;28;20382;-73
2023/12/21 07:46:23;;;;;;;18.20;7.55;;;10.20;99.90;;;;;;5070334;28;20375;-73
2023/12/21 07:48:49;;;;;;;18.95;6.82;;;10.10;99.90;;;;;;5070393;28;20399;-73
2023/12/21 07:51:15;;;;;;;20.60;7.90;;;10.20;99.90;;;;;;5072024;28;20380;-73
2023/12/21 07:53:40;;;;;;;22.43;8.13;;;10.30;99.90;;;;;;5073135;28;20391;-73
2023/12/21 07:56:07;;;;;;;23.20;8.27;;;10.30;99.90;;;;;;5071943;28;20390;-73
2023/12/21 07:58:32;;;;;;;23.75;7.72;;;10.30;99.90;;;;;;5072082;28;20426;-72
2023/12/21 08:00:58;;;;;;;21.75;7.35;;;10.30;99.90;;;;;;5073994;28;20404;-73
2023/12/21 08:03:23;;;;;;;22.08;7.72;;;10.30;99.90;;;;;;5073021;28;20387;-73
2023/12/21 08:05:49;;;;;;;26.97;8.33;;;10.30;99.90;;;;;;5073186;28;20456;-73
2023/12/21 08:08:14;;;;;;;22.00;8.00;;;10.20;99.90;;;;;;5073192;28;20408;-73
2023/12/21 08:10:40;;;;;;;22.70;7.40;;;10.30;99.90;;;;;;5072938;28;20419;-72
2023/12/21 08:13:08;;;;;;;19.57;7.83;;;10.30;99.90;;;;;;5071841;28;20509;-73
2023/12/21 08:15:34;;;;;;;23.05;7.20;;;10.30;99.90;;;;;;5073857;28;20380;-73
2023/12/21 08:17:59;;;;;;;25.00;7.67;;;10.30;99.90;;;;;;5073859;28;20391;-73
2023/12/21 08:20:25;;;;;;;21.93;6.87;;;10.30;99.90;;;;;;5073100;28;20707;-72
2023/12/21 08:22:50;;;;;;;21.17;7.10;;;10.30;99.90;;;;;;5073083;28;20397;-72
2023/12/21 08:25:16;;;;;;;28.97;7.17;;;10.30;99.90;;;;;;5072970;28;20383;-71
2023/12/21 08:27:42;;;;;;;17.03;6.90;;;10.30;99.90;;;;;;5073306;28;20379;-72
2023/12/21 08:30:09;;;;;;;25.40;6.90;;;10.40;99.90;;;;;;5072979;28;20383;-73
2023/12/21 08:32:35;;;;;;;16.77;6.88;;;10.40;99.90;;;;;;5072879;28;20446;-73
2023/12/21 08:35:01;;;;;;;17.40;6.53;;;10.30;99.90;;;;;;5072576;28;20423;-74
2023/12/21 08:37:26;;;;;;;25.63;7.93;;;10.30;99.90;;;;;;5072724;28;20375;-73
2023/12/21 08:39:52;;;;;;;26.27;7.07;;;10.30;99.90;;;;;;5072418;28;20427;-74
2023/12/21 08:42:17;;;;;;;17.60;5.90;;;10.30;99.90;;;;;;5072135;28;20383;-73
2023/12/21 08:44:43;;;;;;;21.85;6.28;;;10.30;99.90;;;;;;5072333;28;20403;-73
2023/12/21 08:47:09;;;;;;;18.65;6.30;;;10.30;99.90;;;;;;5071136;28;20689;-74
2023/12/21 08:49:34;;;;;;;17.20;6.20;;;10.30;99.90;;;;;;5072150;28;20442;-73
2023/12/21 08:52:00;;;;;;;15.83;5.50;;;10.30;99.90;;;;;;5072201;28;20465;-73
2023/12/21 08:54:25;;;;;;;13.47;5.40;;;10.40;99.90;;;;;;5072024;28;20383;-75
2023/12/21 08:56:51;;;;;;;14.33;4.90;;;10.40;99.90;;;;;;5072236;28;20390;-73
2023/12/21 08:59:17;;;;;;;14.37;5.50;;;10.40;99.90;;;;;;5072509;28;20375;-73
2023/12/21 09:01:43;;;;;;;14.52;4.60;;;10.40;99.90;;;;;;5072363;28;20746;-73
2023/12/21 09:04:09;;;;;;;14.93;4.85;;;10.40;99.90;;;;;;5071739;28;20387;-72
2023/12/21 09:06:34;;;;;;;12.48;4.15;;;10.40;99.90;;;;;;5071780;28;20383;-73
2023/12/21 09:09:02;;;;;;;9.85;3.58;;;10.40;99.90;;;;;;5071300;28;20380;-73
2023/12/21 09:11:28;;;;;;;6.87;3.70;;;10.50;99.90;;;;;;5071746;28;20421;-72
2023/12/21 09:13:55;;;;;;;7.20;3.50;;;10.40;99.90;;;;;;5072044;28;20403;-77
2023/12/21 09:16:21;;;;;;;6.70;3.10;;;10.40;99.90;;;;;;5072114;28;20379;-73
2023/12/21 09:18:47;;;;;;;8.55;3.38;;;10.40;99.90;;;;;;5071794;28;20866;-73
2023/12/21 09:21:13;;;;;;;6.33;3.00;;;10.50;99.90;;;;;;5071881;28;20384;-73
2023/12/21 09:23:41;;;;;;;8.63;2.97;;;10.50;99.90;;;;;;5071939;28;20394;-73
2023/12/21 09:26:10;;;;;;;8.18;2.90;;;10.50;99.90;;;;;;5071940;28;20383;-73
2023/12/21 09:28:37;;;;;;;8.40;3.10;;;10.50;99.90;;;;;;5071859;28;20433;-72
2023/12/21 09:31:07;;;;;;;7.05;2.60;;;10.60;99.90;;;;;;5071413;28;20789;-73
2023/12/21 09:33:34;;;;;;;6.90;2.47;;;10.50;99.90;;;;;;5071214;28;20419;-73
2023/12/21 09:36:06;;;;;;;4.90;2.60;;;10.50;99.90;;;;;;5071095;28;20433;-73
2023/12/21 09:38:32;;;;;;;7.90;2.40;;;10.50;99.90;;;;;;5071861;28;20799;-74
2023/12/21 09:40:58;;;;;;;8.73;2.40;;;10.50;99.90;;;;;;5071368;28;20458;-73
2023/12/21 09:43:24;;;;;;;6.10;2.30;;;10.60;99.90;;;;;;5071143;28;20384;-74
2023/12/21 09:45:51;;;;;;;4.30;2.20;;;10.60;99.90;;;;;;5070535;28;20399;-73
2023/12/21 09:48:18;;;;;;;4.03;2.15;;;10.60;99.90;;;;;;5071441;28;20379;-73
2023/12/21 09:50:45;;;;;;;4.22;1.90;;;10.60;99.90;;;;;;5070981;28;20388;-74
2023/12/21 09:53:14;;;;;;;4.57;1.95;;;10.60;99.90;;;;;;5071078;28;20438;-74
2023/12/21 09:55:43;;;;;;;5.93;1.70;;;10.60;99.90;;;;;;5070345;28;20372;-74
2023/12/21 09:58:11;;;;;;;5.63;2.00;;;10.60;99.90;;;;;;5070977;28;20429;-72
2023/12/21 10:00:37;;;;;;;3.92;1.80;;;10.60;99.90;;;;;;5070847;28;20695;-73
2023/12/21 10:03:04;;;;;;;3.15;1.40;;;10.60;99.90;;;;;;5071182;28;20730;-73
2023/12/21 10:05:30;;;;;;;5.07;1.77;;;10.60;99.90;;;;;;5070427;28;20387;-73
2023/12/21 10:07:56;;;;;;;3.92;1.58;;;10.60;99.90;;;;;;5070917;28;20471;-73
2023/12/21 10:10:22;;;;;;;2.03;1.50;;;10.60;99.90;;;;;;5070909;28;20395;-72
2023/12/21 10:12:47;;;;;;;2.53;1.30;;;10.60;99.90;;;;;;5070647;28;20408;-73
2023/12/21 10:15:13;;;;;;;6.70;1.92;;;10.60;99.90;;;;;;5070588;28;20384;-73
2023/12/21 10:17:39;;;;;;;3.30;1.75;;;10.60;99.90;;;;;;5070502;28;20384;-73
2023/12/21 10:20:05;;;;;;;4.20;1.50;;;10.60;99.90;;;;;;5070209;28;20450;-73
2023/12/21 10:22:31;;;;;;;3.50;1.70;;;10.70;99.90;;;;;;5071833;28;20409;-73
2023/12/21 10:24:57;;;;;;;2.60;1.40;;;10.70;99.90;;;;;;5070948;28;20395;-73
2023/12/21 10:27:23;;;;;;;1.90;1.40;;;10.70;99.90;;;;;;5070375;28;20415;-72
2023/12/21 10:29:56;;;;;;;3.80;1.60;;;10.70;99.90;;;;;;5070689;28;20493;-73
2023/12/21 10:32:22;;;;;;;4.00;1.45;;;10.70;99.90;;;;;;5070487;28;20435;-73
2023/12/21 10:34:48;;;;;;;2.33;1.70;;;10.80;99.90;;;;;;5070344;28;20427;-74
2023/12/21 10:37:17;;;;;;;1.75;1.40;;;10.70;99.90;;;;;;5070596;28;20368;-72
2023/12/21 10:39:43;;;;;;;4.00;2.10;;;10.70;99.90;;;;;;5073397;28;20758;-74
2023/12/21 10:42:09;;;;;;;3.60;2.33;;;10.70;99.90;;;;;;5073769;28;20801;-73
2023/12/21 10:44:35;;;;;;;3.63;1.93;;;10.70;99.90;;;;;;5074493;28;20380;-73
2023/12/21 10:47:01;;;;;;;3.08;2.40;;;10.70;99.90;;;;;;5072496;28;20398;-73
2023/12/21 10:49:27;;;;;;;3.80;2.90;;;10.80;99.90;;;;;;5070084;28;20416;-73
2023/12/21 10:51:54;;;;;;;5.28;3.00;;;10.80;99.90;;;;;;5070323;28;20457;-72
2023/12/21 10:54:22;;;;;;;5.80;2.88;;;10.80;99.90;;;;;;5070093;28;20451;-73
2023/12/21 10:56:48;;;;;;;4.57;3.25;;;10.80;99.90;;;;;;5070398;28;20463;-73
2023/12/21 10:59:14;;;;;;;6.25;3.70;;;10.80;99.90;;;;;;5070948;28;20415;-73
2023/12/21 11:01:40;;;;;;;5.63;3.33;;;10.80;99.90;;;;;;5071463;28;20908;-73
2023/12/21 11:04:08;;;;;;;6.78;3.67;;;10.90;99.90;;;;;;5075605;28;20403;-73
2023/12/21 11:06:33;;;;;;;7.10;3.97;;;10.90;99.90;;;;;;5074221;28;20758;-72
2023/12/21 11:09:00;;;;;;;5.75;3.40;;;11.00;99.90;;;;;;5072276;28;20383;-73
2023/12/21 11:11:27;;;;;;;5.70;3.60;;;11.00;99.90;;;;;;5073333;28;20549;-73
2023/12/21 11:13:55;;;;;;;4.03;3.45;;;10.90;99.90;;;;;;5074359;28;20414;-72
2023/12/21 11:16:28;;;;;;;8.30;4.22;;;11.00;99.90;;;;;;5072333;28;20404;-72
2023/12/21 11:18:57;;;;;;;5.70;3.97;;;11.00;99.90;;;;;;5073090;28;20395;-73
2023/12/21 11:21:26;;;;;;;7.30;3.88;;;11.00;99.90;;;;;;5071170;28;20466;-72
2023/12/21 11:23:52;;;;;;;6.47;3.80;;;11.10;99.90;;;;;;5071598;28;20423;-72
2023/12/21 11:26:25;;;;;;;8.60;3.95;;;11.10;99.70;;;;;;5070738;28;20384;-72
2023/12/21 11:28:50;;;;;;;4.93;3.55;;;11.20;99.90;;;;;;5070746;28;20454;-72
2023/12/21 11:31:18;;;;;;;8.13;3.80;;;11.30;97.50;;;;;;5069941;28;20463;-72
2023/12/21 11:33:45;;;;;;;8.27;4.03;;;11.40;95.90;;;;;;5072032;28;20395;-73
2023/12/21 11:36:23;;;;;;;3.97;3.42;;;11.40;93.70;;;;;;5073634;28;20858;-72
2023/12/21 11:38:51;;;;;;;8.95;3.70;;;11.40;91.70;;;;;;5073739;28;20886;-72
2023/12/21 11:41:20;;;;;;;7.47;3.60;;;11.50;91.60;;;;;;5073702;28;20380;-72
2023/12/21 11:43:59;;;;;;;8.45;3.42;;;11.60;89.00;;;;;;5073276;28;20399;-72
2023/12/21 11:46:25;;;;;;;8.55;3.17;;;11.60;89.90;;;;;;5073514;28;20411;-73
2023/12/21 11:48:50;;;;;;;6.90;3.20;;;11.60;88.70;;;;;;5073640;28;20758;-72
2023/12/21 11:51:16;;;;;;;7.57;2.90;;;11.60;89.00;;;;;;5074297;28;20375;-72
2023/12/21 11:53:43;;;;;;;7.05;3.47;;;11.70;85.70;;;;;;5075177;28;20462;-72
2023/12/21 11:56:15;;;;;;;6.85;3.20;;;11.80;85.70;;;;;;5073412;28;20388;-72
2023/12/21 11:58:43;;;;;;;5.88;3.10;;;11.80;83.30;;;;;;5074806;28;20396;-73
2023/12/21 12:01:22;;;;;;;7.00;3.10;;;11.90;84.40;;;;;;5074074;28;20674;-72
2023/12/21 12:03:47;;;;;;;5.85;2.70;;;11.90;83.50;;;;;;5074809;28;20451;-72
2023/12/21 12:06:14;;;;;;;8.80;3.20;;;11.90;85.90;;;;;;5075699;28;20437;-72
2023/12/21 12:08:40;;;;;;;8.40;2.60;;;11.80;87.10;;;;;;5074120;28;20395;-71
2023/12/21 12:11:06;;;;;;;5.45;2.53;;;11.80;88.70;;;;;;5081551;28;20380;-72
2023/12/21 12:13:32;;;;;;;2.97;2.30;;;11.70;90.00;;;;;;5081168;28;20411;-72
2023/12/21 12:15:57;;;;;;;5.40;2.20;;;11.70;90.60;;;;;;5082022;28;20390;-71
2023/12/21 12:18:23;;;;;;;4.20;2.03;;;11.60;94.60;;;;;;5078268;28;20375;-73
2023/12/21 12:20:51;;;;;;;5.10;2.30;;;11.60;97.40;;;;;;5076605;28;20422;-72
2023/12/21 12:23:18;;;;;;;6.10;2.40;;;11.50;98.50;;;;;;5073850;28;20392;-72
2023/12/21 12:25:44;;;;;;;5.40;2.28;;;11.50;98.60;;;;;;5072944;28;20376;-73
2023/12/21 12:28:10;;;;;;;4.50;2.20;;;11.50;98.60;;;;;;5075976;28;20394;-72
2023/12/21 12:30:36;;;;;;;6.72;2.10;;;11.50;93.00;;;;;;5075110;28;20388;-72
2023/12/21 12:33:03;;;;;;;3.33;2.22;;;11.60;89.20;;;;;;5074976;28;20403;-73
2023/12/21 12:35:36;;;;;;;6.00;1.80;;;11.60;90.90;;;;;;5075081;28;20456;-73
2023/12/21 12:38:04;;;;;;;2.40;1.50;;;11.70;88.10;;;;;;5073995;28;20482;-74
2023/12/21 12:40:29;;;;;;;5.45;1.70;;;11.80;85.60;;;;;;5074060;28;20710;-72
2023/12/21 12:42:55;;;;;;;3.92;1.42;;;11.80;88.60;;;;;;5074678;28;20749;-73